Time;durP1;ratioP1;P1;durP2;ratioP2;P2;SDS_P1;SDS_P2;PMS_P1;PMS_P2;Temp;Humidity;BMP_temperature;BMP_pressure;BME280_temperature;BME280_humidity;BME280_pressure;Samples;Min_cycle;Max_cycle;Signal;HPM_P1;HPM_P2
2023/12/18 00:01:06;;;;;;;13.65;3.50;;;24.80;74.20;;;;;;5009196;28;20030;-80
2023/12/18 00:03:36;;;;;;;10.65;3.42;;;24.80;73.80;;;;;;5011925;28;20033;-79
2023/12/18 00:06:04;;;;;;;14.90;4.43;;;24.80;73.80;;;;;;5001505;28;20046;-85
2023/12/18 00:08:31;;;;;;;10.73;3.30;;;24.90;74.00;;;;;;5019888;28;20488;-87
2023/12/18 00:10:59;;;;;;;13.82;4.10;;;24.90;73.90;;;;;;5015596;28;20034;-83
2023/12/18 00:13:28;;;;;;;13.90;3.75;;;24.90;73.40;;;;;;5024604;28;20030;-86
2023/12/18 00:15:55;;;;;;;10.73;3.35;;;25.00;73.60;;;;;;5004610;28;20061;-86
2023/12/18 00:18:22;;;;;;;11.95;3.85;;;24.90;73.40;;;;;;5013086;28;20040;-79
2023/12/18 00:20:52;;;;;;;13.80;4.13;;;24.90;73.50;;;;;;5016305;28;20033;-81
2023/12/18 00:23:21;;;;;;;9.90;3.42;;;25.00;73.60;;;;;;5011844;28;20085;-82
2023/12/18 00:25:49;;;;;;;12.75;3.33;;;25.00;73.30;;;;;;5014714;28;20476;-84
2023/12/18 00:28:17;;;;;;;14.82;4.18;;;25.00;73.10;;;;;;5015614;28;20034;-81
2023/12/18 00:30:45;;;;;;;16.70;4.20;;;25.10;73.30;;;;;;5016702;28;20093;-87
2023/12/18 00:33:12;;;;;;;14.02;4.25;;;25.20;73.50;;;;;;5013779;28;20082;-86
2023/12/18 00:35:40;;;;;;;11.73;3.97;;;25.20;73.10;;;;;;5025026;28;20041;-79
2023/12/18 00:38:07;;;;;;;11.48;4.18;;;25.30;73.00;;;;;;5005459;28;20543;-82
2023/12/18 00:40:35;;;;;;;13.82;4.15;;;25.40;73.00;;;;;;5013573;28;20029;-80
2023/12/18 00:43:02;;;;;;;12.23;4.00;;;25.50;72.30;;;;;;5013800;28;20434;-83
2023/12/18 00:45:29;;;;;;;11.90;3.90;;;25.70;71.80;;;;;;5013793;28;20637;-85
2023/12/18 00:47:57;;;;;;;17.65;5.00;;;25.80;71.10;;;;;;5005516;28;20029;-83
2023/12/18 00:50:24;;;;;;;11.48;3.92;;;25.90;70.80;;;;;;5001093;28;20039;-83
2023/12/18 00:52:52;;;;;;;11.32;3.55;;;26.00;70.80;;;;;;5012352;28;20397;-84
2023/12/18 00:55:24;;;;;;;9.95;3.20;;;26.20;70.40;;;;;;5005426;28;20073;-83
2023/12/18 00:57:51;;;;;;;12.63;3.85;;;26.30;70.10;;;;;;5012629;28;20697;-83
2023/12/18 01:00:19;;;;;;;10.10;3.75;;;26.40;69.70;;;;;;5011788;28;20025;-83
2023/12/18 01:02:47;;;;;;;14.20;4.05;;;26.50;69.30;;;;;;5016584;28;20034;-78
2023/12/18 01:05:14;;;;;;;14.20;4.78;;;26.60;69.30;;;;;;5008807;28;20126;-82
2023/12/18 01:07:43;;;;;;;16.42;4.55;;;26.70;69.20;;;;;;5011857;28;20065;-80
2023/12/18 01:10:10;;;;;;;16.67;5.10;;;26.80;69.00;;;;;;5009724;28;20034;-79
2023/12/18 01:12:41;;;;;;;12.95;4.18;;;26.90;68.50;;;;;;5013285;28;20018;-79
2023/12/18 01:15:08;;;;;;;12.68;4.05;;;27.00;68.20;;;;;;4994143;28;20049;-80
2023/12/18 01:17:36;;;;;;;13.40;4.47;;;27.20;67.40;;;;;;5012240;28;20022;-78
2023/12/18 01:20:05;;;;;;;10.73;4.10;;;27.30;67.00;;;;;;5013454;28;20460;-81
2023/12/18 01:22:33;;;;;;;12.25;4.30;;;27.40;67.10;;;;;;5012121;28;20109;-81
2023/12/18 01:25:01;;;;;;;16.30;4.35;;;27.40;66.50;;;;;;5012713;28;20504;-83
2023/12/18 01:27:28;;;;;;;10.02;3.60;;;27.50;66.50;;;;;;5020741;28;20076;-80
2023/12/18 01:29:56;;;;;;;15.35;4.20;;;27.50;66.30;;;;;;5015048;28;20033;-81
2023/12/18 01:32:23;;;;;;;13.10;4.13;;;27.50;66.40;;;;;;5023961;28;20445;-83
2023/12/18 01:34:50;;;;;;;14.88;4.30;;;27.50;66.60;;;;;;5016799;28;20022;-82
2023/12/18 01:37:18;;;;;;;11.38;3.65;;;27.40;66.50;;;;;;5012741;28;20029;-84
2023/12/18 01:39:45;;;;;;;13.35;3.45;;;27.50;66.00;;;;;;5015669;28;20022;-83
2023/12/18 01:42:12;;;;;;;13.00;3.58;;;27.40;66.10;;;;;;5003467;28;20445;-87
2023/12/18 01:44:40;;;;;;;14.27;3.83;;;27.40;66.50;;;;;;5012558;28;20045;-85
2023/12/18 01:47:08;;;;;;;19.95;4.85;;;27.40;66.60;;;;;;5016136;28;20033;-85
2023/12/18 01:49:36;;;;;;;20.48;5.30;;;27.50;66.70;;;;;;5015373;28;20029;-87
2023/12/18 01:52:04;;;;;;;12.23;5.10;;;27.50;66.80;;;;;;5020125;28;20108;-83
2023/12/18 01:54:32;;;;;;;16.02;4.70;;;27.50;66.90;;;;;;5012510;28;20045;-84
2023/12/18 01:57:00;;;;;;;20.73;3.90;;;27.50;66.60;;;;;;5014958;28;20018;-78
2023/12/18 01:59:32;;;;;;;15.25;4.40;;;27.60;67.00;;;;;;5013587;28;20026;-81
2023/12/18 02:02:00;;;;;;;10.70;3.67;;;27.60;67.20;;;;;;5015396;28;20029;-85
2023/12/18 02:04:28;;;;;;;16.25;4.28;;;27.60;67.10;;;;;;5018089;28;20030;-83
2023/12/18 02:06:57;;;;;;;15.30;4.30;;;27.70;67.30;;;;;;5015559;28;20034;-85
2023/12/18 02:09:25;;;;;;;12.70;4.22;;;27.80;66.90;;;;;;5008489;28;20026;-83
2023/12/18 02:11:52;;;;;;;14.32;4.22;;;27.90;67.10;;;;;;5018588;28;20111;-82
2023/12/18 02:14:19;;;;;;;14.93;4.75;;;28.00;66.70;;;;;;5018671;28;20044;-85
2023/12/18 02:16:47;;;;;;;13.73;4.30;;;28.10;66.70;;;;;;5009016;28;20369;-86
2023/12/18 02:19:28;;;;;;;19.92;5.45;;;28.20;66.70;;;;;;5011656;28;20481;-83
2023/12/18 02:21:57;;;;;;;9.75;3.50;;;28.30;66.20;;;;;;5012805;28;20034;-83
2023/12/18 02:24:24;;;;;;;12.38;4.22;;;28.40;65.30;;;;;;5014851;28;20026;-86
2023/12/18 02:26:52;;;;;;;15.48;4.78;;;28.40;65.40;;;;;;5017872;28;20535;-81
2023/12/18 02:29:20;;;;;;;20.67;5.00;;;28.50;65.40;;;;;;5020811;28;20044;-89
2023/12/18 02:31:48;;;;;;;9.50;3.85;;;28.60;65.50;;;;;;5031366;28;20022;-80
2023/12/18 02:34:16;;;;;;;12.27;4.38;;;28.70;65.20;;;;;;5011860;28;20069;-79
2023/12/18 02:36:43;;;;;;;11.98;4.28;;;28.70;64.70;;;;;;5008851;28;20072;-82
2023/12/18 02:39:10;;;;;;;13.48;4.80;;;28.70;64.80;;;;;;5033097;28;20080;-85
2023/12/18 02:41:38;;;;;;;16.05;4.85;;;28.80;64.30;;;;;;5021104;28;20057;-85
2023/12/18 02:44:06;;;;;;;14.50;4.18;;;28.80;63.90;;;;;;5015870;28;20032;-85
2023/12/18 02:46:33;;;;;;;10.32;3.55;;;28.80;64.20;;;;;;5034712;28;20480;-88
2023/12/18 02:49:00;;;;;;;9.02;3.97;;;28.80;64.00;;;;;;5023488;28;20038;-82
2023/12/18 02:51:28;;;;;;;11.20;4.22;;;28.80;63.90;;;;;;5011620;28;20040;-85
2023/12/18 02:53:56;;;;;;;16.25;4.43;;;28.90;64.00;;;;;;5014774;28;20042;-85
2023/12/18 02:56:25;;;;;;;11.52;4.28;;;28.90;64.00;;;;;;5015139;28;20366;-85
2023/12/18 02:58:55;;;;;;;12.63;4.93;;;28.90;64.00;;;;;;5014354;28;20040;-83
2023/12/18 03:01:22;;;;;;;10.77;4.43;;;29.00;64.00;;;;;;5015323;28;20026;-84
2023/12/18 03:03:54;;;;;;;12.25;4.45;;;28.90;63.90;;;;;;5014593;28;20109;-82
2023/12/18 03:06:22;;;;;;;10.60;4.13;;;29.00;64.00;;;;;;5013639;28;20485;-85
2023/12/18 03:08:49;;;;;;;17.15;4.60;;;29.00;64.00;;;;;;5014436;28;20099;-89
2023/12/18 03:11:16;;;;;;;14.43;4.40;;;29.00;64.20;;;;;;5016521;28;20081;-85
2023/12/18 03:13:44;;;;;;;12.63;5.03;;;29.10;63.90;;;;;;5014446;28;20026;-88
2023/12/18 03:16:12;;;;;;;13.10;4.57;;;29.10;63.60;;;;;;5014591;28;20041;-81
2023/12/18 03:18:40;;;;;;;12.55;4.70;;;29.10;63.40;;;;;;5017762;28;20123;-88
2023/12/18 03:21:10;;;;;;;11.48;4.88;;;29.10;63.40;;;;;;5016004;28;20413;-89
2023/12/18 03:23:38;;;;;;;10.75;4.80;;;29.10;63.10;;;;;;5023292;28;20083;-83
2023/12/18 03:26:05;;;;;;;11.77;5.65;;;29.10;63.00;;;;;;5011385;28;20435;-84
2023/12/18 03:28:33;;;;;;;16.08;5.20;;;29.10;63.00;;;;;;5011132;28;20038;-82
2023/12/18 03:31:00;;;;;;;12.38;4.40;;;29.10;63.20;;;;;;5013998;28;20087;-79
2023/12/18 03:33:28;;;;;;;12.48;4.85;;;29.20;63.00;;;;;;5012986;28;20069;-83
2023/12/18 03:35:55;;;;;;;11.73;4.22;;;29.20;62.90;;;;;;5013477;28;20401;-79
2023/12/18 03:38:24;;;;;;;12.48;4.50;;;29.20;62.70;;;;;;5012221;28;20072;-78
2023/12/18 03:40:51;;;;;;;15.55;7.60;;;29.30;62.70;;;;;;5013919;28;20021;-82
2023/12/18 03:43:19;;;;;;;10.68;6.00;;;29.30;62.30;;;;;;5017639;28;20074;-83
2023/12/18 03:45:47;;;;;;;15.05;5.15;;;29.30;62.20;;;;;;5022014;28;20484;-77
2023/12/18 03:48:16;;;;;;;11.82;5.43;;;29.30;62.20;;;;;;5024171;28;20037;-83
2023/12/18 03:50:43;;;;;;;12.23;4.93;;;29.30;62.20;;;;;;5034910;28;20086;-89
2023/12/18 03:53:11;;;;;;;14.15;4.45;;;29.30;62.30;;;;;;5014780;28;20040;-79
2023/12/18 03:55:39;;;;;;;11.40;4.20;;;29.30;62.30;;;;;;5014853;28;20036;-89
2023/12/18 03:58:10;;;;;;;13.38;4.22;;;29.40;62.00;;;;;;5015109;28;20026;-83
2023/12/18 04:00:38;;;;;;;15.52;5.00;;;29.30;61.80;;;;;;5030864;28;20026;-85
2023/12/18 04:03:07;;;;;;;11.18;4.50;;;29.30;62.00;;;;;;5016648;28;20049;-85
2023/12/18 04:05:34;;;;;;;12.13;4.72;;;29.30;62.00;;;;;;5014441;28;20052;-86
2023/12/18 04:08:01;;;;;;;15.15;4.90;;;29.30;62.40;;;;;;5014154;28;20036;-81
2023/12/18 04:10:34;;;;;;;13.93;4.18;;;29.30;62.30;;;;;;5014356;28;20045;-86
2023/12/18 04:13:03;;;;;;;10.73;3.58;;;29.30;62.40;;;;;;5013596;28;20024;-86
2023/12/18 04:15:31;;;;;;;14.00;3.50;;;29.40;62.20;;;;;;5014803;28;20030;-85
2023/12/18 04:18:00;;;;;;;12.45;4.57;;;29.30;62.30;;;;;;5013848;28;20432;-88
2023/12/18 04:20:28;;;;;;;11.57;4.43;;;29.40;62.60;;;;;;4997321;28;20546;-80
2023/12/18 04:22:55;;;;;;;10.80;4.07;;;29.40;62.70;;;;;;5018925;28;20036;-77
2023/12/18 04:25:24;;;;;;;11.25;4.00;;;29.40;62.60;;;;;;5009428;28;20049;-81
2023/12/18 04:27:52;;;;;;;12.40;5.07;;;29.40;62.80;;;;;;5012086;28;20049;-82
2023/12/18 04:30:20;;;;;;;15.15;4.53;;;29.30;63.00;;;;;;5017490;28;20033;-80
2023/12/18 04:32:47;;;;;;;14.60;4.20;;;29.40;63.10;;;;;;5016809;28;20026;-87
2023/12/18 04:35:14;;;;;;;11.10;4.40;;;29.40;63.10;;;;;;5033159;28;20384;-86
2023/12/18 04:37:42;;;;;;;17.35;4.57;;;29.40;63.30;;;;;;5021411;28;20030;-77
2023/12/18 04:40:10;;;;;;;12.75;4.47;;;29.40;63.40;;;;;;5025288;28;20104;-85
2023/12/18 04:42:38;;;;;;;15.68;4.47;;;29.40;63.30;;;;;;5017761;28;20018;-79
2023/12/18 04:45:05;;;;;;;15.75;4.00;;;29.40;63.50;;;;;;5012491;28;20033;-81
2023/12/18 04:47:33;;;;;;;14.07;4.53;;;29.40;63.20;;;;;;5011700;28;20105;-84
2023/12/18 04:50:00;;;;;;;10.93;4.28;;;29.40;63.00;;;;;;4998040;28;20038;-86
2023/12/18 04:52:27;;;;;;;14.30;4.57;;;29.50;62.80;;;;;;4993321;28;20398;-80
2023/12/18 04:54:55;;;;;;;13.63;3.80;;;29.50;63.30;;;;;;5003588;28;20428;-81
2023/12/18 04:57:22;;;;;;;16.20;3.50;;;29.50;63.50;;;;;;5023088;28;20388;-81
2023/12/18 04:59:52;;;;;;;12.52;4.13;;;29.50;63.30;;;;;;5017972;28;20488;-81
2023/12/18 05:02:19;;;;;;;13.50;3.97;;;29.50;63.50;;;;;;5017026;28;20028;-79
2023/12/18 05:04:47;;;;;;;13.02;4.22;;;29.50;63.70;;;;;;5010441;28;20039;-84
2023/12/18 05:07:14;;;;;;;15.90;4.63;;;29.50;63.50;;;;;;5003908;28;20030;-80
2023/12/18 05:09:41;;;;;;;15.70;4.80;;;29.60;63.60;;;;;;4999234;28;20041;-86
2023/12/18 05:12:09;;;;;;;13.25;4.13;;;29.70;63.60;;;;;;5021326;28;20056;-85
2023/12/18 05:14:36;;;;;;;11.45;3.50;;;29.70;63.30;;;;;;5019115;28;20038;-86
2023/12/18 05:17:04;;;;;;;15.02;3.97;;;29.70;63.20;;;;;;5016973;28;20056;-87
2023/12/18 05:19:32;;;;;;;12.95;4.00;;;29.70;63.40;;;;;;5001934;28;20073;-86
2023/12/18 05:21:59;;;;;;;12.57;3.15;;;29.70;63.40;;;;;;5016356;28;20484;-87
2023/12/18 05:24:26;;;;;;;15.23;4.18;;;29.60;63.10;;;;;;5013926;28;20030;-82
2023/12/18 05:26:54;;;;;;;15.95;4.40;;;29.50;63.10;;;;;;5017051;28;20034;-88
2023/12/18 05:29:21;;;;;;;12.18;3.72;;;29.30;63.50;;;;;;5021282;28;20069;-87
2023/12/18 05:31:48;;;;;;;14.27;4.03;;;29.30;63.70;;;;;;5018181;28;20057;-77
2023/12/18 05:34:17;;;;;;;16.70;3.75;;;29.30;64.20;;;;;;5015692;28;20030;-82
2023/12/18 05:36:45;;;;;;;11.73;3.28;;;29.20;64.70;;;;;;5016984;28;20041;-85
2023/12/18 05:39:12;;;;;;;14.23;3.80;;;29.20;64.50;;;;;;5031307;28;20040;-80
2023/12/18 05:41:40;;;;;;;14.77;3.83;;;29.20;64.60;;;;;;5028079;28;20127;-80
2023/12/18 05:44:09;;;;;;;16.48;3.25;;;29.10;65.00;;;;;;5022172;28;20021;-81
2023/12/18 05:46:36;;;;;;;12.70;3.92;;;29.10;65.60;;;;;;5017518;28;20037;-81
2023/12/18 05:49:03;;;;;;;19.83;4.00;;;29.10;64.90;;;;;;5025444;28;20080;-79
2023/12/18 05:51:34;;;;;;;13.95;3.72;;;29.10;65.30;;;;;;5014948;28;20041;-78
2023/12/18 05:54:01;;;;;;;14.48;3.80;;;29.10;65.50;;;;;;5014288;28;20805;-80
2023/12/18 05:56:28;;;;;;;11.80;3.58;;;29.10;65.70;;;;;;5014776;28;20050;-79
2023/12/18 05:58:57;;;;;;;16.45;4.05;;;29.10;65.60;;;;;;5023306;28;20029;-79
2023/12/18 06:01:24;;;;;;;14.82;3.90;;;29.10;65.80;;;;;;5023717;28;20040;-82
2023/12/18 06:03:52;;;;;;;15.45;3.80;;;29.00;65.90;;;;;;5013725;28;20334;-78
2023/12/18 06:06:20;;;;;;;16.02;3.95;;;29.00;65.80;;;;;;5023270;28;20041;-80
2023/12/18 06:08:47;;;;;;;15.52;4.25;;;28.90;65.90;;;;;;5027987;28;20029;-85
2023/12/18 06:11:18;;;;;;;19.48;4.90;;;28.80;66.40;;;;;;5023183;28;20117;-81
2023/12/18 06:13:46;;;;;;;16.17;4.57;;;28.80;66.50;;;;;;5016817;28;20084;-83
2023/12/18 06:16:13;;;;;;;16.05;3.72;;;28.80;67.20;;;;;;5026212;28;20038;-80
2023/12/18 06:18:41;;;;;;;16.90;4.45;;;28.70;67.60;;;;;;5028217;28;20076;-82
2023/12/18 06:21:08;;;;;;;18.15;4.13;;;28.70;67.60;;;;;;5015271;28;20026;-84
2023/12/18 06:23:35;;;;;;;19.60;4.07;;;28.70;67.90;;;;;;5015217;28;20026;-88
2023/12/18 06:26:06;;;;;;;12.63;3.97;;;28.70;67.40;;;;;;5024860;28;20065;-79
2023/12/18 06:28:33;;;;;;;19.63;4.40;;;28.60;67.70;;;;;;5019583;28;20120;-89
2023/12/18 06:31:00;;;;;;;12.90;3.17;;;28.70;68.00;;;;;;5010109;28;20106;-84
2023/12/18 06:33:28;;;;;;;14.32;3.75;;;28.70;67.10;;;;;;5028235;28;20073;-80
2023/12/18 06:35:55;;;;;;;18.17;4.38;;;28.60;67.30;;;;;;5011855;28;20370;-87
2023/12/18 06:38:23;;;;;;;14.55;4.10;;;28.60;67.30;;;;;;5016122;28;20037;-85
2023/12/18 06:40:50;;;;;;;16.77;4.38;;;28.50;68.00;;;;;;5017163;28;20065;-87
2023/12/18 06:43:18;;;;;;;17.35;4.00;;;28.40;68.20;;;;;;5023202;28;20037;-88
2023/12/18 06:45:45;;;;;;;12.30;4.10;;;28.40;68.10;;;;;;5024149;28;20053;-80
2023/12/18 06:48:14;;;;;;;17.67;3.80;;;28.30;68.30;;;;;;5029523;28;20032;-83
2023/12/18 06:50:41;;;;;;;12.88;3.10;;;28.30;68.50;;;;;;5016856;28;20358;-82
2023/12/18 06:53:09;;;;;;;15.95;4.05;;;28.30;68.60;;;;;;5016563;28;20033;-81
2023/12/18 06:55:39;;;;;;;17.02;4.20;;;28.30;68.40;;;;;;5022371;28;20030;-88
2023/12/18 06:58:07;;;;;;;13.60;4.28;;;28.30;68.70;;;;;;5027805;28;20053;-80
2023/12/18 07:00:34;;;;;;;22.23;4.70;;;28.30;68.90;;;;;;5019979;28;20044;-79
2023/12/18 07:03:02;;;;;;;22.85;4.82;;;28.20;68.80;;;;;;5026371;28;20025;-78
2023/12/18 07:05:30;;;;;;;17.67;4.43;;;28.20;69.10;;;;;;5034063;28;20046;-82
2023/12/18 07:07:58;;;;;;;23.73;4.85;;;28.10;69.30;;;;;;5027930;28;20030;-85
2023/12/18 07:10:26;;;;;;;19.48;5.05;;;28.10;69.60;;;;;;5027883;28;20033;-83
2023/12/18 07:12:53;;;;;;;20.50;4.32;;;28.10;69.60;;;;;;5014128;28;20115;-81
2023/12/18 07:15:23;;;;;;;16.30;4.60;;;28.00;69.70;;;;;;5018944;28;20516;-82
2023/12/18 07:17:51;;;;;;;15.13;3.92;;;27.90;69.70;;;;;;5017373;28;20023;-78
2023/12/18 07:20:18;;;;;;;23.67;5.10;;;27.90;70.20;;;;;;5017107;28;20029;-81
2023/12/18 07:22:46;;;;;;;18.42;4.32;;;27.80;70.50;;;;;;5015995;28;20052;-79
2023/12/18 07:25:14;;;;;;;17.05;4.07;;;27.80;70.20;;;;;;5019254;28;20044;-83
2023/12/18 07:27:41;;;;;;;15.85;3.72;;;27.80;70.00;;;;;;5012914;28;20033;-81
2023/12/18 07:30:09;;;;;;;19.45;4.70;;;27.90;69.90;;;;;;5014465;28;20026;-77
2023/12/18 07:32:36;;;;;;;16.85;4.50;;;27.90;69.90;;;;;;5013071;28;20025;-84
2023/12/18 07:35:05;;;;;;;22.08;5.05;;;27.90;70.00;;;;;;5012831;28;20033;-85
2023/12/18 07:37:33;;;;;;;25.05;5.20;;;28.00;70.40;;;;;;5014545;28;20120;-82
2023/12/18 07:40:01;;;;;;;18.85;4.40;;;28.00;70.40;;;;;;5013122;28;20057;-87
2023/12/18 07:42:28;;;;;;;21.17;4.38;;;28.00;70.80;;;;;;5014074;28;20485;-84
2023/12/18 07:44:56;;;;;;;19.65;5.25;;;28.00;71.00;;;;;;5013371;28;20461;-81
2023/12/18 07:47:23;;;;;;;15.40;4.50;;;28.00;70.40;;;;;;5002375;28;20026;-81
2023/12/18 07:49:54;;;;;;;20.48;5.07;;;28.00;70.90;;;;;;5012731;28;20029;-83
2023/12/18 07:52:21;;;;;;;17.80;4.65;;;28.00;70.80;;;;;;5011849;28;20037;-86
2023/12/18 07:54:48;;;;;;;14.45;4.18;;;28.00;70.60;;;;;;5018968;28;20037;-80
2023/12/18 07:57:16;;;;;;;17.55;4.78;;;27.90;70.70;;;;;;5003905;28;20026;-79
2023/12/18 07:59:43;;;;;;;19.85;4.85;;;27.80;71.20;;;;;;5014009;28;20116;-82
2023/12/18 08:02:10;;;;;;;18.00;4.65;;;27.80;71.10;;;;;;5014631;28;20033;-80
2023/12/18 08:04:38;;;;;;;20.92;4.95;;;27.80;71.50;;;;;;5017606;28;20054;-85
2023/12/18 08:07:05;;;;;;;22.33;4.65;;;27.80;71.80;;;;;;5021406;28;20030;-88
2023/12/18 08:09:33;;;;;;;18.83;5.20;;;27.80;72.00;;;;;;5019775;28;20054;-86
2023/12/18 08:12:00;;;;;;;19.55;4.78;;;27.70;72.00;;;;;;5018421;28;20421;-81
2023/12/18 08:14:28;;;;;;;24.85;5.38;;;27.70;72.50;;;;;;5014256;28;20109;-80
2023/12/18 08:16:56;;;;;;;17.60;4.80;;;27.60;72.50;;;;;;5031811;28;20032;-79
2023/12/18 08:19:23;;;;;;;21.95;5.10;;;27.50;72.60;;;;;;5012716;28;20026;-80
2023/12/18 08:21:51;;;;;;;18.77;5.22;;;27.40;72.80;;;;;;5015928;28;20382;-85
2023/12/18 08:24:21;;;;;;;16.38;4.45;;;27.40;72.90;;;;;;5010887;28;20096;-80
2023/12/18 08:26:49;;;;;;;22.08;5.25;;;27.40;73.00;;;;;;5033412;28;20427;-80
2023/12/18 08:29:16;;;;;;;17.77;4.80;;;27.30;73.40;;;;;;5016222;28;20041;-88
2023/12/18 08:31:43;;;;;;;24.05;5.63;;;27.30;73.50;;;;;;5012035;28;20060;-82
2023/12/18 08:34:11;;;;;;;22.02;5.38;;;27.30;73.60;;;;;;5018409;28;20065;-78
2023/12/18 08:36:38;;;;;;;18.95;5.10;;;27.30;73.40;;;;;;5013550;28;20499;-85
2023/12/18 08:39:08;;;;;;;23.38;6.28;;;27.30;73.50;;;;;;5008012;28;20072;-81
2023/12/18 08:41:41;;;;;;;19.40;5.15;;;27.30;73.70;;;;;;5003834;28;20057;-88
2023/12/18 08:44:09;;;;;;;18.80;5.88;;;27.30;73.80;;;;;;5009734;28;20079;-83
2023/12/18 08:46:37;;;;;;;17.95;5.68;;;27.30;73.50;;;;;;5016287;28;20075;-84
2023/12/18 08:49:04;;;;;;;16.60;4.38;;;27.30;73.60;;;;;;5015670;28;20032;-83
2023/12/18 08:51:32;;;;;;;22.45;4.65;;;27.30;73.90;;;;;;5014194;28;20041;-78
2023/12/18 08:54:04;;;;;;;19.20;6.07;;;27.20;73.60;;;;;;5000821;28;20540;-87
2023/12/18 08:56:32;;;;;;;20.98;5.38;;;27.20;73.90;;;;;;5008438;28;20117;-81
2023/12/18 08:59:03;;;;;;;19.60;4.75;;;27.20;74.80;;;;;;5008240;28;20018;-88
2023/12/18 09:01:30;;;;;;;26.10;7.18;;;27.10;74.20;;;;;;5032336;28;20030;-88
2023/12/18 09:03:58;;;;;;;19.77;5.47;;;27.20;74.70;;;;;;5012553;28;20045;-84
2023/12/18 09:06:25;;;;;;;15.88;4.50;;;27.20;74.80;;;;;;5011323;28;20042;-84
2023/12/18 09:08:53;;;;;;;19.55;5.45;;;27.20;75.10;;;;;;5010675;28;20108;-82
2023/12/18 09:11:20;;;;;;;16.73;5.00;;;27.20;74.90;;;;;;5014746;28;20039;-88
2023/12/18 09:13:47;;;;;;;23.90;5.70;;;27.10;75.10;;;;;;5009103;28;20045;-79
2023/12/18 09:16:15;;;;;;;15.38;4.70;;;27.10;75.70;;;;;;5010322;28;20042;-85
2023/12/18 09:18:42;;;;;;;19.17;4.60;;;27.10;76.10;;;;;;5011697;28;20026;-82
2023/12/18 09:21:10;;;;;;;17.77;4.55;;;27.10;77.00;;;;;;5013659;28;20026;-86
2023/12/18 09:23:37;;;;;;;20.17;5.75;;;27.20;76.60;;;;;;5019273;28;20029;-80
2023/12/18 09:26:05;;;;;;;17.80;4.75;;;27.10;76.50;;;;;;5018590;28;20117;-88
2023/12/18 09:28:33;;;;;;;17.98;4.35;;;27.00;76.80;;;;;;5011820;28;20157;-84
2023/12/18 09:31:01;;;;;;;18.85;5.05;;;27.00;77.10;;;;;;5012089;28;20069;-87
2023/12/18 09:33:28;;;;;;;17.70;4.55;;;27.00;77.40;;;;;;5018491;28;20029;-79
2023/12/18 09:35:55;;;;;;;19.08;5.13;;;27.00;77.30;;;;;;5016160;28;20034;-80
2023/12/18 09:38:23;;;;;;;17.20;4.43;;;26.90;77.20;;;;;;5016106;28;20029;-83
2023/12/18 09:40:50;;;;;;;23.48;6.05;;;26.90;77.50;;;;;;5012566;28;20033;-81
2023/12/18 09:43:18;;;;;;;16.35;4.82;;;26.80;77.50;;;;;;5018457;28;20026;-85
2023/12/18 09:45:49;;;;;;;17.27;4.97;;;26.80;77.40;;;;;;5022935;28;20029;-80
2023/12/18 09:48:19;;;;;;;19.98;5.15;;;26.80;77.30;;;;;;5014976;28;20030;-86
2023/12/18 09:50:46;;;;;;;17.58;5.35;;;26.80;77.60;;;;;;5027035;28;20034;-88
2023/12/18 09:53:17;;;;;;;16.63;4.70;;;26.70;77.40;;;;;;5021142;28;20029;-86
2023/12/18 09:55:48;;;;;;;11.98;4.18;;;26.70;77.20;;;;;;5014177;28;20092;-85
2023/12/18 09:58:18;;;;;;;19.63;5.03;;;26.70;76.90;;;;;;5025404;28;20033;-86
2023/12/18 10:00:47;;;;;;;20.63;4.63;;;26.70;77.00;;;;;;5034923;28;20045;-88
2023/12/18 10:03:16;;;;;;;15.90;4.70;;;26.60;77.00;;;;;;5034984;28;20026;-83
2023/12/18 10:05:45;;;;;;;13.82;4.80;;;26.70;77.00;;;;;;5031846;28;20151;-79
2023/12/18 10:08:12;;;;;;;16.52;4.95;;;26.60;76.90;;;;;;5024517;28;20420;-85
2023/12/18 10:10:43;;;;;;;16.98;4.72;;;26.60;77.00;;;;;;5015405;28;20026;-82
2023/12/18 10:13:13;;;;;;;17.95;5.18;;;26.60;77.00;;;;;;5014237;28;20022;-87
2023/12/18 10:15:42;;;;;;;9.77;4.20;;;26.60;77.10;;;;;;5015075;28;20052;-82
2023/12/18 10:18:10;;;;;;;12.50;4.63;;;26.60;77.30;;;;;;5028962;28;20025;-87
2023/12/18 10:20:40;;;;;;;13.00;4.55;;;26.60;77.10;;;;;;5028266;28;20079;-79
2023/12/18 10:23:08;;;;;;;13.52;4.90;;;26.60;76.90;;;;;;5023848;28;20021;-80
2023/12/18 10:25:36;;;;;;;11.63;4.22;;;26.60;76.90;;;;;;5035300;28;20036;-78
2023/12/18 10:28:04;;;;;;;16.73;6.72;;;26.60;76.60;;;;;;5038065;28;20036;-88
2023/12/18 10:30:32;;;;;;;10.82;4.50;;;26.50;76.40;;;;;;5025514;28;20029;-87
2023/12/18 10:33:03;;;;;;;18.17;5.47;;;26.50;76.30;;;;;;5023585;28;20040;-88
2023/12/18 10:35:31;;;;;;;17.58;5.07;;;26.50;76.50;;;;;;5029721;28;20096;-85
2023/12/18 10:38:00;;;;;;;13.70;4.63;;;26.50;76.60;;;;;;5020969;28;20057;-85
2023/12/18 10:40:28;;;;;;;18.05;5.60;;;26.60;76.60;;;;;;5015595;28;20043;-82
2023/12/18 10:43:27;;;;;;;15.05;5.07;;;26.50;76.60;;;;;;5013562;28;20018;-83
2023/12/18 10:45:59;;;;;;;12.52;5.07;;;26.50;76.40;;;;;;5031886;28;20060;-82
2023/12/18 10:48:27;;;;;;;17.15;5.10;;;26.50;76.30;;;;;;5030882;28;20104;-88
2023/12/18 10:50:57;;;;;;;11.52;4.85;;;26.40;76.40;;;;;;5011508;28;20033;-82
2023/12/18 10:53:25;;;;;;;15.32;5.13;;;26.40;76.40;;;;;;5011905;28;20026;-82
2023/12/18 10:55:55;;;;;;;9.27;4.20;;;26.40;76.50;;;;;;5010868;28;20492;-80
2023/12/18 10:58:23;;;;;;;13.98;4.65;;;26.40;76.50;;;;;;5009180;28;20029;-78
2023/12/18 11:00:53;;;;;;;16.50;5.35;;;26.40;76.40;;;;;;5010970;28;20038;-77
2023/12/18 11:03:26;;;;;;;10.95;4.50;;;26.40;76.40;;;;;;5014426;28;20386;-78
2023/12/18 11:05:57;;;;;;;14.90;5.20;;;26.30;76.10;;;;;;5013809;28;20109;-78
2023/12/18 11:08:25;;;;;;;13.50;5.18;;;26.30;76.50;;;;;;5016040;28;20036;-80
2023/12/18 11:10:54;;;;;;;14.23;4.78;;;26.30;76.60;;;;;;5012320;28;20018;-81
2023/12/18 11:13:57;;;;;;;10.60;4.32;;;26.30;76.80;;;;;;5010499;28;20026;-82
2023/12/18 11:16:47;;;;;;;10.50;4.50;;;26.30;76.40;;;;;;5006767;28;20058;-78
2023/12/18 11:19:27;;;;;;;18.50;5.43;;;26.30;76.30;;;;;;4999347;28;20095;-77
2023/12/18 11:21:54;;;;;;;16.17;4.95;;;26.30;76.50;;;;;;5006338;28;20037;-79
2023/12/18 11:24:22;;;;;;;12.95;4.90;;;26.30;76.70;;;;;;5008009;28;20100;-81
2023/12/18 11:26:51;;;;;;;16.25;5.20;;;26.30;76.60;;;;;;5011118;28;20041;-78
2023/12/18 11:29:34;;;;;;;16.38;5.28;;;26.30;76.80;;;;;;5008014;28;20026;-77
2023/12/18 11:32:02;;;;;;;13.45;4.70;;;26.30;76.80;;;;;;5013701;28;20861;-77
2023/12/18 11:34:31;;;;;;;17.15;5.55;;;26.20;76.70;;;;;;5008740;28;20033;-79
2023/12/18 11:36:59;;;;;;;18.80;5.75;;;26.30;76.80;;;;;;5021607;28;20032;-78
2023/12/18 11:39:46;;;;;;;13.52;5.20;;;26.20;77.00;;;;;;5004673;28;20469;-77
2023/12/18 11:42:14;;;;;;;19.13;5.95;;;26.20;77.20;;;;;;5009216;28;20029;-77
2023/12/18 11:44:42;;;;;;;12.68;4.75;;;26.20;76.90;;;;;;5012086;28;20034;-81
2023/12/18 11:47:09;;;;;;;19.52;6.28;;;26.20;77.00;;;;;;5003802;28;20382;-77
2023/12/18 11:49:37;;;;;;;10.48;4.60;;;26.10;77.20;;;;;;5004307;28;20061;-77
2023/12/18 11:52:25;;;;;;;8.40;4.40;;;26.10;77.00;;;;;;5016189;28;20481;-79
2023/12/18 11:54:52;;;;;;;16.05;5.28;;;26.10;76.90;;;;;;5020790;28;20037;-86
2023/12/18 11:57:23;;;;;;;14.75;5.22;;;26.10;77.10;;;;;;5009913;28;20030;-77
2023/12/18 11:59:51;;;;;;;18.88;5.63;;;26.10;77.10;;;;;;5018515;28;20045;-78
2023/12/18 12:02:19;;;;;;;17.90;6.05;;;26.10;77.40;;;;;;5018690;28;20049;-77
2023/12/18 12:04:47;;;;;;;13.68;5.40;;;26.10;77.50;;;;;;5026253;28;20569;-77
2023/12/18 12:07:14;;;;;;;16.10;5.35;;;26.00;77.60;;;;;;5007018;28;20033;-78
2023/12/18 12:09:43;;;;;;;13.88;5.35;;;26.00;77.70;;;;;;5009527;28;20037;-79
2023/12/18 12:12:13;;;;;;;14.35;5.50;;;26.10;77.80;;;;;;5012374;28;20083;-78
2023/12/18 12:14:40;;;;;;;16.08;5.65;;;26.00;77.90;;;;;;5028320;28;20029;-77
2023/12/18 12:17:08;;;;;;;19.88;5.45;;;26.10;78.30;;;;;;5000730;28;20485;-84
2023/12/18 12:19:35;;;;;;;16.90;6.20;;;26.00;78.30;;;;;;5015742;28;20533;-80
2023/12/18 12:22:03;;;;;;;16.17;5.72;;;26.00;78.30;;;;;;5020144;28;20061;-81
2023/12/18 12:24:30;;;;;;;17.08;5.95;;;26.00;78.30;;;;;;5015272;28;20220;-78
2023/12/18 12:26:58;;;;;;;17.65;6.65;;;26.00;78.70;;;;;;5010315;28;20109;-80
2023/12/18 12:29:27;;;;;;;18.50;5.85;;;26.00;78.60;;;;;;5019406;28;20101;-80
2023/12/18 12:31:54;;;;;;;18.17;6.28;;;26.00;78.80;;;;;;5014701;28;20123;-81
2023/12/18 12:34:22;;;;;;;11.70;5.07;;;26.00;79.00;;;;;;5015280;28;20026;-79
2023/12/18 12:36:49;;;;;;;9.55;4.38;;;26.00;78.60;;;;;;5019365;28;20385;-84
2023/12/18 12:39:16;;;;;;;20.05;6.57;;;26.00;78.30;;;;;;5014305;28;20080;-81
2023/12/18 12:41:45;;;;;;;14.63;5.03;;;26.00;78.70;;;;;;5010487;28;20022;-81
2023/12/18 12:44:12;;;;;;;14.60;5.68;;;26.00;78.60;;;;;;5002962;28;20493;-78